Time;durP1;ratioP1;P1;durP2;ratioP2;P2;SDS_P1;SDS_P2;PMS_P1;PMS_P2;Temp;Humidity;BMP_temperature;BMP_pressure;BME280_temperature;BME280_humidity;BME280_pressure;Samples;Min_cycle;Max_cycle;Signal;HPM_P1;HPM_P2
2022/03/11 00:01:03;;;;;;;17.60;10.00;;;;;;;;;;5095514;28;20429;-60
2022/03/11 00:03:29;;;;;;;19.20;10.57;;;;;;;;;;5095393;28;20920;-60
2022/03/11 00:05:55;;;;;;;25.00;9.80;;;;;;;;;;5113416;28;20901;-59
2022/03/11 00:08:22;;;;;;;15.47;10.07;;;;;;;;;;5113789;28;20913;-60
2022/03/11 00:10:48;;;;;;;20.20;10.37;;;;;;;;;;5113592;28;20401;-60
2022/03/11 00:13:14;;;;;;;17.93;9.53;;;;;;;;;;5095467;28;20424;-61
2022/03/11 00:15:43;;;;;;;17.07;10.43;;;;;;;;;;5095118;28;20422;-60
2022/03/11 00:18:09;;;;;;;17.30;9.93;;;;;;;;;;5113259;28;20547;-61
2022/03/11 00:20:36;;;;;;;18.53;10.30;;;;;;;;;;5113481;28;20979;-58
2022/03/11 00:23:02;;;;;;;15.80;8.83;;;;;;;;;;5113417;28;20461;-59
2022/03/11 00:25:29;;;;;;;17.30;10.10;;;;;;;;;;5113304;28;20881;-57
2022/03/11 00:27:56;;;;;;;18.23;9.67;;;;;;;;;;5113477;28;20408;-61
2022/03/11 00:30:22;;;;;;;17.40;10.43;;;;;;;;;;5113263;28;20556;-58
2022/03/11 00:32:48;;;;;;;16.33;9.80;;;;;;;;;;5113217;28;20939;-58
2022/03/11 00:35:14;;;;;;;16.67;10.00;;;;;;;;;;5113345;28;20474;-56
2022/03/11 00:37:41;;;;;;;18.10;10.23;;;;;;;;;;5113130;28;20603;-58
2022/03/11 00:40:07;;;;;;;16.57;10.07;;;;;;;;;;5113016;28;20408;-56
2022/03/11 00:42:37;;;;;;;18.30;10.00;;;;;;;;;;5112980;28;20475;-57
2022/03/11 00:45:03;;;;;;;22.33;10.77;;;;;;;;;;5112993;28;20829;-58
2022/03/11 00:47:29;;;;;;;17.30;10.37;;;;;;;;;;5112905;28;20412;-56
2022/03/11 00:49:55;;;;;;;21.23;10.80;;;;;;;;;;5094446;28;20429;-58
2022/03/11 00:52:21;;;;;;;17.63;10.20;;;;;;;;;;5112727;28;20527;-57
2022/03/11 00:54:47;;;;;;;16.60;9.80;;;;;;;;;;5112927;28;20461;-58
2022/03/11 00:57:13;;;;;;;14.20;9.50;;;;;;;;;;5094676;28;20548;-59
2022/03/11 00:59:39;;;;;;;18.33;9.97;;;;;;;;;;5112969;28;20413;-58
2022/03/11 01:02:05;;;;;;;18.13;10.33;;;;;;;;;;5112632;28;20475;-57
2022/03/11 01:04:31;;;;;;;18.80;9.43;;;;;;;;;;5094366;28;20409;-57
2022/03/11 01:06:57;;;;;;;18.73;10.40;;;;;;;;;;5112735;28;20864;-56
2022/03/11 01:09:26;;;;;;;19.53;9.53;;;;;;;;;;5112659;28;20397;-56
2022/03/11 01:11:52;;;;;;;17.60;9.87;;;;;;;;;;5112665;28;20426;-56
2022/03/11 01:14:18;;;;;;;16.70;9.40;;;;;;;;;;5112633;28;20739;-56
2022/03/11 01:16:44;;;;;;;17.50;9.47;;;;;;;;;;5112712;28;20909;-57
2022/03/11 01:19:11;;;;;;;25.40;10.60;;;;;;;;;;5112587;28;20449;-57
2022/03/11 01:21:37;;;;;;;15.27;9.97;;;;;;;;;;5112467;28;20495;-58
2022/03/11 01:24:03;;;;;;;14.10;9.50;;;;;;;;;;5112589;28;20417;-58
2022/03/11 01:26:29;;;;;;;17.13;9.50;;;;;;;;;;5094341;28;20416;-58
2022/03/11 01:28:55;;;;;;;17.03;10.30;;;;;;;;;;5112539;28;20405;-56
2022/03/11 01:31:21;;;;;;;19.37;10.60;;;;;;;;;;5094320;28;20421;-58
2022/03/11 01:33:47;;;;;;;14.60;9.20;;;;;;;;;;5112554;28;20425;-55
2022/03/11 01:36:14;;;;;;;16.63;9.80;;;;;;;;;;5112774;28;20503;-56
2022/03/11 01:38:40;;;;;;;19.70;10.00;;;;;;;;;;5096244;28;20425;-59
2022/03/11 01:41:06;;;;;;;16.00;10.30;;;;;;;;;;5116476;28;20411;-55
2022/03/11 01:43:49;;;;;;;17.93;10.60;;;;;;;;;;5116434;28;20469;-55
2022/03/11 01:46:15;;;;;;;18.67;9.37;;;;;;;;;;5116509;28;20496;-57
2022/03/11 01:48:41;;;;;;;21.13;10.07;;;;;;;;;;5116493;28;20905;-57
2022/03/11 01:51:07;;;;;;;15.70;9.40;;;;;;;;;;5116280;28;20449;-59
2022/03/11 01:53:33;;;;;;;18.73;9.47;;;;;;;;;;5116314;28;20427;-54
2022/03/11 01:55:59;;;;;;;17.07;9.30;;;;;;;;;;5116214;28;20402;-54
2022/03/11 01:58:26;;;;;;;17.20;8.33;;;;;;;;;;5116050;28;20911;-56
2022/03/11 02:00:52;;;;;;;14.23;9.27;;;;;;;;;;5116185;28;20424;-57
2022/03/11 02:03:18;;;;;;;15.90;9.30;;;;;;;;;;5116036;28;20420;-54
2022/03/11 02:05:44;;;;;;;18.30;9.80;;;;;;;;;;5116137;28;20746;-57
2022/03/11 02:08:10;;;;;;;17.37;9.83;;;;;;;;;;5115987;28;20469;-55
2022/03/11 02:10:36;;;;;;;21.57;10.40;;;;;;;;;;5115880;28;20405;-57
2022/03/11 02:13:06;;;;;;;16.20;10.00;;;;;;;;;;5115834;28;20405;-60
2022/03/11 02:15:32;;;;;;;17.80;9.83;;;;;;;;;;5115769;27;20409;-58
2022/03/11 02:18:01;;;;;;;15.23;9.77;;;;;;;;;;5115801;28;20444;-60
2022/03/11 02:20:28;;;;;;;13.93;9.63;;;;;;;;;;5097600;28;20428;-57
2022/03/11 02:22:55;;;;;;;17.23;10.40;;;;;;;;;;5115889;28;20960;-59
2022/03/11 02:25:21;;;;;;;21.30;9.90;;;;;;;;;;5115903;28;21016;-57
2022/03/11 02:27:47;;;;;;;15.80;10.40;;;;;;;;;;5115891;28;20918;-58
2022/03/11 02:30:17;;;;;;;16.07;9.80;;;;;;;;;;5097868;28;20405;-59
2022/03/11 02:32:47;;;;;;;15.30;8.70;;;;;;;;;;5115897;28;20419;-57
2022/03/11 02:35:14;;;;;;;27.53;8.90;;;;;;;;;;5115885;28;20808;-57
2022/03/11 02:37:40;;;;;;;16.50;9.17;;;;;;;;;;5115631;28;20413;-59
2022/03/11 02:40:06;;;;;;;13.63;8.67;;;;;;;;;;5097217;28;20413;-57
2022/03/11 02:42:33;;;;;;;19.57;9.40;;;;;;;;;;5115486;28;20472;-57
2022/03/11 02:44:59;;;;;;;15.23;8.53;;;;;;;;;;5115519;28;20400;-58
2022/03/11 02:47:26;;;;;;;17.90;10.07;;;;;;;;;;5097197;28;20424;-58
2022/03/11 02:49:52;;;;;;;16.30;9.50;;;;;;;;;;5115330;28;20480;-58
2022/03/11 02:52:18;;;;;;;14.37;9.13;;;;;;;;;;5115351;28;20843;-56
2022/03/11 02:54:44;;;;;;;20.30;9.43;;;;;;;;;;5115438;28;20403;-54
2022/03/11 02:57:10;;;;;;;14.23;8.77;;;;;;;;;;5115214;28;20416;-57
2022/03/11 02:59:39;;;;;;;15.10;8.30;;;;;;;;;;5096883;28;20401;-57
2022/03/11 03:02:05;;;;;;;13.77;8.90;;;;;;;;;;5114991;28;20506;-55
2022/03/11 03:04:31;;;;;;;15.00;9.60;;;;;;;;;;5115076;28;20417;-56
2022/03/11 03:07:00;;;;;;;15.67;9.03;;;;;;;;;;5115091;28;20411;-56
2022/03/11 03:09:26;;;;;;;13.30;8.10;;;;;;;;;;5115048;28;20931;-59
2022/03/11 03:11:52;;;;;;;16.03;8.77;;;;;;;;;;5096784;28;20479;-59
2022/03/11 03:14:22;;;;;;;14.20;7.97;;;;;;;;;;5114857;28;20476;-57
2022/03/11 03:16:48;;;;;;;15.23;8.70;;;;;;;;;;5096455;28;20445;-54
2022/03/11 03:19:17;;;;;;;16.37;9.00;;;;;;;;;;5114796;28;20545;-56
2022/03/11 03:21:43;;;;;;;18.47;9.87;;;;;;;;;;5114823;28;20496;-56
2022/03/11 03:24:09;;;;;;;16.67;9.60;;;;;;;;;;5114714;28;20451;-57
2022/03/11 03:26:35;;;;;;;17.67;9.20;;;;;;;;;;5114653;28;20500;-55
2022/03/11 03:29:01;;;;;;;17.17;9.40;;;;;;;;;;5114654;28;20908;-56
2022/03/11 03:31:27;;;;;;;18.97;9.73;;;;;;;;;;5114561;28;20918;-57
2022/03/11 03:33:53;;;;;;;14.87;9.67;;;;;;;;;;5114470;28;20508;-57
2022/03/11 03:36:19;;;;;;;14.83;8.80;;;;;;;;;;5114454;27;20401;-57
2022/03/11 03:38:45;;;;;;;14.10;9.00;;;;;;;;;;5114563;28;20922;-57
2022/03/11 03:41:14;;;;;;;14.10;8.77;;;;;;;;;;5114543;28;20409;-58
2022/03/11 03:43:40;;;;;;;19.40;10.10;;;;;;;;;;5114466;28;21000;-58
2022/03/11 03:46:07;;;;;;;13.60;8.63;;;;;;;;;;5114372;28;20448;-60
2022/03/11 03:48:35;;;;;;;13.13;7.97;;;;;;;;;;5114417;28;20780;-61
2022/03/11 03:51:01;;;;;;;14.77;8.83;;;;;;;;;;5114204;28;20409;-61
2022/03/11 03:53:27;;;;;;;16.60;8.90;;;;;;;;;;5096055;28;20413;-61
2022/03/11 03:55:54;;;;;;;19.13;9.20;;;;;;;;;;5114073;28;20413;-61
2022/03/11 03:58:20;;;;;;;19.27;9.37;;;;;;;;;;5114064;28;20484;-62
2022/03/11 04:00:46;;;;;;;15.20;9.27;;;;;;;;;;5113729;27;20451;-56
2022/03/11 04:03:15;;;;;;;16.00;9.37;;;;;;;;;;5113901;28;20501;-59
2022/03/11 04:05:41;;;;;;;15.60;9.70;;;;;;;;;;5113884;28;20397;-60
2022/03/11 04:08:07;;;;;;;15.23;8.87;;;;;;;;;;5095603;28;20781;-59
2022/03/11 04:10:33;;;;;;;18.13;8.73;;;;;;;;;;5095663;28;20409;-60
2022/03/11 04:12:59;;;;;;;14.63;7.73;;;;;;;;;;5113599;27;20404;-59
2022/03/11 04:15:25;;;;;;;17.87;10.00;;;;;;;;;;5113741;28;20778;-61
2022/03/11 04:17:53;;;;;;;14.00;8.73;;;;;;;;;;5113674;28;20444;-59
2022/03/11 04:20:19;;;;;;;17.17;9.60;;;;;;;;;;5113726;28;20408;-60
2022/03/11 04:22:46;;;;;;;12.93;7.80;;;;;;;;;;5113631;28;20472;-59
2022/03/11 04:25:13;;;;;;;12.83;7.90;;;;;;;;;;5113767;28;20456;-59
2022/03/11 04:27:40;;;;;;;18.90;8.87;;;;;;;;;;5113489;27;20435;-57
2022/03/11 04:30:06;;;;;;;20.03;10.03;;;;;;;;;;5095093;28;20408;-58
2022/03/11 04:32:35;;;;;;;17.57;8.67;;;;;;;;;;5113386;28;20397;-58
2022/03/11 04:35:04;;;;;;;14.73;9.43;;;;;;;;;;5113417;28;20393;-57
2022/03/11 04:37:30;;;;;;;15.07;8.40;;;;;;;;;;5113265;28;20408;-59
2022/03/11 04:39:57;;;;;;;17.00;8.93;;;;;;;;;;5113138;28;20397;-57
2022/03/11 04:42:23;;;;;;;19.70;9.40;;;;;;;;;;5113060;28;20465;-60
2022/03/11 04:44:49;;;;;;;19.13;9.33;;;;;;;;;;5113186;28;20400;-57
2022/03/11 04:47:15;;;;;;;14.57;9.00;;;;;;;;;;5113260;28;20432;-56
2022/03/11 04:49:42;;;;;;;15.50;8.30;;;;;;;;;;5113250;28;20407;-57
2022/03/11 04:52:08;;;;;;;15.23;9.00;;;;;;;;;;5113042;28;20440;-58
2022/03/11 04:54:34;;;;;;;22.63;8.47;;;;;;;;;;5112991;28;20454;-57
2022/03/11 04:57:00;;;;;;;17.57;8.93;;;;;;;;;;5113119;28;20462;-57
2022/03/11 04:59:26;;;;;;;19.20;10.10;;;;;;;;;;5116836;28;20396;-58
2022/03/11 05:01:52;;;;;;;18.40;9.60;;;;;;;;;;5112829;28;20994;-56
2022/03/11 05:04:18;;;;;;;15.30;8.67;;;;;;;;;;5115062;27;20530;-56
2022/03/11 05:06:44;;;;;;;13.43;8.10;;;;;;;;;;5121802;28;20433;-58
2022/03/11 05:09:10;;;;;;;19.77;8.37;;;;;;;;;;5123437;28;20428;-58
2022/03/11 05:11:37;;;;;;;15.30;9.00;;;;;;;;;;5104306;27;20405;-58
2022/03/11 05:14:03;;;;;;;15.00;9.40;;;;;;;;;;5124598;27;20408;-55
2022/03/11 05:16:29;;;;;;;14.67;8.87;;;;;;;;;;5128747;27;20979;-60
2022/03/11 05:18:58;;;;;;;16.93;8.50;;;;;;;;;;5137460;27;20443;-61
2022/03/11 05:21:24;;;;;;;15.77;9.10;;;;;;;;;;5137441;27;20519;-62
2022/03/11 05:23:50;;;;;;;18.20;10.10;;;;;;;;;;5137532;27;20495;-60
2022/03/11 05:26:25;;;;;;;15.27;9.30;;;;;;;;;;5119038;27;20892;-59
2022/03/11 05:28:55;;;;;;;18.17;8.93;;;;;;;;;;5137368;27;20418;-62
2022/03/11 05:31:22;;;;;;;18.50;9.23;;;;;;;;;;5137353;27;20396;-57
2022/03/11 05:33:51;;;;;;;16.83;9.13;;;;;;;;;;5137394;27;20497;-60
2022/03/11 05:36:17;;;;;;;14.73;8.30;;;;;;;;;;5137570;27;20407;-56
2022/03/11 05:38:44;;;;;;;15.63;8.93;;;;;;;;;;5136775;27;20464;-58
2022/03/11 05:41:13;;;;;;;20.93;9.40;;;;;;;;;;5136197;27;20407;-56
2022/03/11 05:43:39;;;;;;;16.83;8.70;;;;;;;;;;5136229;27;20499;-57
2022/03/11 05:46:05;;;;;;;15.63;8.20;;;;;;;;;;5136365;27;20395;-57
2022/03/11 05:48:34;;;;;;;16.87;8.83;;;;;;;;;;5136249;27;20741;-57
2022/03/11 05:51:00;;;;;;;16.43;9.83;;;;;;;;;;5117724;27;20810;-59
2022/03/11 05:53:27;;;;;;;22.93;9.20;;;;;;;;;;5135938;27;20443;-58
2022/03/11 05:55:53;;;;;;;22.00;8.90;;;;;;;;;;5117610;27;20416;-57
2022/03/11 05:58:19;;;;;;;18.23;9.53;;;;;;;;;;5136068;27;20408;-58
2022/03/11 06:00:46;;;;;;;16.30;8.13;;;;;;;;;;5135841;27;20404;-59
2022/03/11 06:03:12;;;;;;;17.90;9.03;;;;;;;;;;5117189;27;20528;-58
2022/03/11 06:05:38;;;;;;;18.20;8.30;;;;;;;;;;5135863;27;20396;-58
2022/03/11 06:08:08;;;;;;;17.17;9.30;;;;;;;;;;5135725;27;20403;-60
2022/03/11 06:10:34;;;;;;;17.73;9.00;;;;;;;;;;5117201;27;20837;-59
2022/03/11 06:13:00;;;;;;;13.97;8.30;;;;;;;;;;5135789;27;20912;-55
2022/03/11 06:15:26;;;;;;;15.77;8.97;;;;;;;;;;5135719;27;20763;-58
2022/03/11 06:17:52;;;;;;;19.30;8.50;;;;;;;;;;5135345;27;20458;-58
2022/03/11 06:20:19;;;;;;;14.83;8.67;;;;;;;;;;5135197;27;20404;-58
2022/03/11 06:22:49;;;;;;;18.63;9.20;;;;;;;;;;5136325;27;20463;-58
2022/03/11 06:25:16;;;;;;;15.83;9.07;;;;;;;;;;5135895;27;20404;-58
2022/03/11 06:27:42;;;;;;;12.40;9.00;;;;;;;;;;5136393;27;20447;-58
2022/03/11 06:30:08;;;;;;;15.33;8.83;;;;;;;;;;5136289;27;20400;-59
2022/03/11 06:32:44;;;;;;;17.93;9.60;;;;;;;;;;5136297;27;20416;-58
2022/03/11 06:35:13;;;;;;;18.93;9.23;;;;;;;;;;5136191;27;20411;-57
2022/03/11 06:37:39;;;;;;;18.07;8.70;;;;;;;;;;5117622;27;20545;-59
2022/03/11 06:40:06;;;;;;;14.03;7.97;;;;;;;;;;5135921;27;20437;-58
2022/03/11 06:42:39;;;;;;;16.90;8.53;;;;;;;;;;5135970;27;20467;-59
2022/03/11 06:45:06;;;;;;;15.50;8.67;;;;;;;;;;5117456;27;20881;-61
2022/03/11 06:47:32;;;;;;;17.53;9.03;;;;;;;;;;5135857;27;20427;-62
2022/03/11 06:50:01;;;;;;;15.67;8.60;;;;;;;;;;5135901;27;20901;-57
2022/03/11 06:52:27;;;;;;;13.27;8.17;;;;;;;;;;5135819;27;20443;-58
2022/03/11 06:54:53;;;;;;;16.30;9.13;;;;;;;;;;5135986;27;20780;-57
2022/03/11 06:57:20;;;;;;;21.37;9.13;;;;;;;;;;5135838;27;20892;-63
2022/03/11 06:59:47;;;;;;;13.47;8.07;;;;;;;;;;5117320;27;20504;-57
2022/03/11 07:02:13;;;;;;;15.00;8.97;;;;;;;;;;5135723;27;20467;-57
2022/03/11 07:04:39;;;;;;;14.17;8.70;;;;;;;;;;5135676;27;20400;-59
2022/03/11 07:07:05;;;;;;;13.07;8.17;;;;;;;;;;5117013;27;20955;-58
2022/03/11 07:09:31;;;;;;;14.83;8.50;;;;;;;;;;5135434;27;20404;-59
2022/03/11 07:12:00;;;;;;;13.97;8.57;;;;;;;;;;5135475;27;20440;-59
2022/03/11 07:14:27;;;;;;;13.57;8.63;;;;;;;;;;5135306;27;20909;-58
2022/03/11 07:16:56;;;;;;;15.33;9.00;;;;;;;;;;5135259;27;20404;-58
2022/03/11 07:19:22;;;;;;;22.50;12.00;;;;;;;;;;5135108;27;20444;-57
2022/03/11 07:21:48;;;;;;;15.83;8.50;;;;;;;;;;5135091;27;20954;-58
2022/03/11 07:24:14;;;;;;;17.10;9.37;;;;;;;;;;5135264;27;20416;-59
2022/03/11 07:26:40;;;;;;;12.30;8.10;;;;;;;;;;5135114;27;20900;-60
2022/03/11 07:29:06;;;;;;;16.77;7.77;;;;;;;;;;5135092;27;20468;-59
2022/03/11 07:31:32;;;;;;;12.50;7.73;;;;;;;;;;5134941;27;20407;-58
2022/03/11 07:33:59;;;;;;;14.73;8.50;;;;;;;;;;5116568;27;20415;-58
2022/03/11 07:36:25;;;;;;;12.87;8.23;;;;;;;;;;5115715;27;20448;-59
2022/03/11 07:38:51;;;;;;;19.43;8.47;;;;;;;;;;5116750;27;20818;-60
2022/03/11 07:41:18;;;;;;;14.23;8.23;;;;;;;;;;5134896;27;20810;-58
2022/03/11 07:43:47;;;;;;;16.23;8.70;;;;;;;;;;5134810;27;20473;-58
2022/03/11 07:46:16;;;;;;;12.90;8.37;;;;;;;;;;5134873;27;20419;-59
2022/03/11 07:48:42;;;;;;;13.93;8.43;;;;;;;;;;5116474;27;20424;-59
2022/03/11 07:51:08;;;;;;;14.70;8.53;;;;;;;;;;5134784;27;20757;-60
2022/03/11 07:53:35;;;;;;;19.77;8.50;;;;;;;;;;5134710;27;20833;-60
2022/03/11 07:56:03;;;;;;;14.17;8.33;;;;;;;;;;5134771;27;20407;-59
2022/03/11 07:58:33;;;;;;;17.73;8.43;;;;;;;;;;5134563;27;20408;-60
2022/03/11 08:00:59;;;;;;;16.70;9.50;;;;;;;;;;5134335;27;20396;-59
2022/03/11 08:03:25;;;;;;;18.90;9.20;;;;;;;;;;5134390;27;20817;-58
2022/03/11 08:05:51;;;;;;;15.03;8.80;;;;;;;;;;5134312;27;20400;-59
2022/03/11 08:08:17;;;;;;;14.80;8.60;;;;;;;;;;5134161;27;20424;-58
2022/03/11 08:10:43;;;;;;;13.70;8.63;;;;;;;;;;5134426;27;20744;-57
2022/03/11 08:13:12;;;;;;;16.23;9.17;;;;;;;;;;5134196;27;20408;-58
2022/03/11 08:15:38;;;;;;;14.97;8.90;;;;;;;;;;5134067;27;20408;-58
2022/03/11 08:18:04;;;;;;;13.63;8.60;;;;;;;;;;5133919;27;20478;-59
2022/03/11 08:20:31;;;;;;;22.37;9.60;;;;;;;;;;5134008;27;20425;-57
2022/03/11 08:22:57;;;;;;;16.37;8.93;;;;;;;;;;5133926;27;20506;-58
2022/03/11 08:25:26;;;;;;;15.43;8.20;;;;;;;;;;5133941;27;20405;-59
2022/03/11 08:27:57;;;;;;;20.00;9.77;;;;;;;;;;5115279;27;20440;-58
2022/03/11 08:30:25;;;;;;;15.20;8.97;;;;;;;;;;5134010;27;20997;-62
2022/03/11 08:32:52;;;;;;;16.30;8.83;;;;;;;;;;5133808;27;20404;-58
2022/03/11 08:35:19;;;;;;;13.87;9.70;;;;;;;;;;5133738;27;20411;-57
2022/03/11 08:37:45;;;;;;;14.47;9.30;;;;;;;;;;5133714;27;20968;-58
2022/03/11 08:40:12;;;;;;;13.37;9.27;;;;;;;;;;5133783;27;20456;-58
2022/03/11 08:42:38;;;;;;;16.97;8.70;;;;;;;;;;5133433;27;20460;-60
2022/03/11 08:45:10;;;;;;;24.17;9.27;;;;;;;;;;5131160;27;20440;-59
2022/03/11 08:47:36;;;;;;;20.30;9.30;;;;;;;;;;5132810;27;21033;-61
2022/03/11 08:50:02;;;;;;;18.03;9.17;;;;;;;;;;5133044;27;20512;-60
2022/03/11 08:52:29;;;;;;;15.40;9.10;;;;;;;;;;5125840;27;20450;-58
2022/03/11 08:54:55;;;;;;;20.00;9.83;;;;;;;;;;5113867;27;21015;-60
2022/03/11 08:57:21;;;;;;;18.70;9.90;;;;;;;;;;5093967;28;20430;-61
2022/03/11 08:59:47;;;;;;;15.30;9.70;;;;;;;;;;5117706;27;20510;-58
2022/03/11 09:02:15;;;;;;;16.77;9.53;;;;;;;;;;5132689;27;20458;-60
2022/03/11 09:04:41;;;;;;;16.40;9.67;;;;;;;;;;5132742;27;20416;-59
2022/03/11 09:07:07;;;;;;;15.30;9.40;;;;;;;;;;5132627;27;20392;-59
2022/03/11 09:09:33;;;;;;;13.70;8.53;;;;;;;;;;5132488;27;20412;-61
2022/03/11 09:12:00;;;;;;;20.47;9.47;;;;;;;;;;5132788;28;20407;-59
2022/03/11 09:14:26;;;;;;;18.63;9.53;;;;;;;;;;5132621;28;20508;-59
2022/03/11 09:16:52;;;;;;;13.53;9.10;;;;;;;;;;5132564;28;20432;-60
2022/03/11 09:19:18;;;;;;;15.00;9.30;;;;;;;;;;5132251;28;20495;-59
2022/03/11 09:21:44;;;;;;;15.70;9.30;;;;;;;;;;5132720;28;20469;-60
2022/03/11 09:24:10;;;;;;;15.87;9.60;;;;;;;;;;5132412;28;20428;-59
2022/03/11 09:26:36;;;;;;;15.90;9.43;;;;;;;;;;5132215;28;20404;-59
2022/03/11 09:29:06;;;;;;;11.93;8.70;;;;;;;;;;5132603;28;20408;-58
2022/03/11 09:31:34;;;;;;;15.43;9.23;;;;;;;;;;5132482;28;20439;-59
2022/03/11 09:34:00;;;;;;;16.67;9.40;;;;;;;;;;5114024;28;20416;-60
2022/03/11 09:36:29;;;;;;;16.53;9.00;;;;;;;;;;5132245;28;20950;-58
2022/03/11 09:38:55;;;;;;;14.40;9.37;;;;;;;;;;5132210;28;20408;-61
2022/03/11 09:41:21;;;;;;;12.67;9.30;;;;;;;;;;5132375;28;20495;-60
2022/03/11 09:43:47;;;;;;;13.10;9.63;;;;;;;;;;5132241;28;20411;-60
2022/03/11 09:46:14;;;;;;;14.33;9.10;;;;;;;;;;5132568;28;20404;-60
2022/03/11 09:48:41;;;;;;;16.43;9.60;;;;;;;;;;5132054;28;20439;-60
2022/03/11 09:51:09;;;;;;;14.30;8.67;;;;;;;;;;5132131;28;20410;-59
2022/03/11 09:53:36;;;;;;;13.07;9.43;;;;;;;;;;5132223;28;20443;-57
2022/03/11 09:56:02;;;;;;;13.40;9.13;;;;;;;;;;5113798;28;20427;-60
2022/03/11 09:58:28;;;;;;;14.73;9.67;;;;;;;;;;5132047;27;20404;-61
2022/03/11 10:00:55;;;;;;;14.97;8.67;;;;;;;;;;5135966;27;20427;-61
2022/03/11 10:03:22;;;;;;;15.87;9.20;;;;;;;;;;5136010;27;20463;-59
2022/03/11 10:05:52;;;;;;;16.13;9.17;;;;;;;;;;5135985;27;20418;-61
2022/03/11 10:08:31;;;;;;;18.53;10.00;;;;;;;;;;5135827;27;20407;-60
2022/03/11 10:11:16;;;;;;;18.83;10.00;;;;;;;;;;5135860;27;20396;-60
2022/03/11 10:13:42;;;;;;;13.87;10.00;;;;;;;;;;5115268;28;20842;-63
2022/03/11 10:16:37;;;;;;;17.07;9.30;;;;;;;;;;5115408;28;20397;-62
2022/03/11 10:19:07;;;;;;;12.80;9.67;;;;;;;;;;5101962;28;20464;-62
2022/03/11 10:21:36;;;;;;;14.77;9.60;;;;;;;;;;5115078;28;20456;-61
2022/03/11 10:24:03;;;;;;;18.20;8.50;;;;;;;;;;5115084;28;20413;-62
2022/03/11 10:26:30;;;;;;;15.27;9.23;;;;;;;;;;5115081;28;20432;-59
2022/03/11 10:28:57;;;;;;;12.50;9.20;;;;;;;;;;5114896;28;20401;-61
2022/03/11 10:31:29;;;;;;;13.27;9.60;;;;;;;;;;5115039;28;20401;-61
2022/03/11 10:34:11;;;;;;;13.17;9.00;;;;;;;;;;5115249;28;20405;-59
2022/03/11 10:36:37;;;;;;;15.70;9.00;;;;;;;;;;5115031;28;20488;-58
2022/03/11 10:39:17;;;;;;;17.13;9.47;;;;;;;;;;5114871;28;20405;-59
2022/03/11 10:41:43;;;;;;;15.63;8.97;;;;;;;;;;5115051;28;20456;-59
2022/03/11 10:44:09;;;;;;;18.30;9.80;;;;;;;;;;5114879;28;20413;-56
2022/03/11 10:46:36;;;;;;;18.40;9.90;;;;;;;;;;5114952;28;20484;-58
2022/03/11 10:49:05;;;;;;;14.60;9.00;;;;;;;;;;5114729;28;20462;-61
2022/03/11 10:51:33;;;;;;;17.03;9.57;;;;;;;;;;5114709;28;20401;-59
2022/03/11 10:54:00;;;;;;;18.07;10.30;;;;;;;;;;5135133;27;20815;-62
2022/03/11 10:56:26;;;;;;;14.83;9.77;;;;;;;;;;5116440;27;20424;-61
2022/03/11 10:58:52;;;;;;;18.70;8.80;;;;;;;;;;5115925;27;20830;-61
2022/03/11 11:01:37;;;;;;;11.93;8.30;;;;;;;;;;5114046;28;20451;-61
2022/03/11 11:04:04;;;;;;;12.73;8.87;;;;;;;;;;5114299;28;20413;-58
2022/03/11 11:06:30;;;;;;;11.90;9.20;;;;;;;;;;5114313;28;20404;-59
2022/03/11 11:08:56;;;;;;;14.13;8.30;;;;;;;;;;5114354;28;20401;-59
2022/03/11 11:11:23;;;;;;;22.67;7.37;;;;;;;;;;5112542;28;20811;-61
2022/03/11 11:13:49;;;;;;;10.17;6.70;;;;;;;;;;5114139;28;20408;-61
2022/03/11 11:16:17;;;;;;;16.37;6.90;;;;;;;;;;5114236;28;20917;-59
2022/03/11 11:18:44;;;;;;;10.60;6.70;;;;;;;;;;5113913;28;20456;-59
2022/03/11 11:21:11;;;;;;;10.60;6.60;;;;;;;;;;5113949;28;20409;-59
2022/03/11 11:23:38;;;;;;;7.93;6.57;;;;;;;;;;5114073;28;20464;-58
2022/03/11 11:26:05;;;;;;;11.20;6.40;;;;;;;;;;5113895;28;21086;-59
2022/03/11 11:28:31;;;;;;;7.77;6.90;;;;;;;;;;5113980;28;20465;-58
2022/03/11 11:30:58;;;;;;;11.07;7.00;;;;;;;;;;5095583;28;20559;-60
2022/03/11 11:33:24;;;;;;;9.33;6.57;;;;;;;;;;5113523;28;20424;-59
2022/03/11 11:36:04;;;;;;;20.07;6.87;;;;;;;;;;5113613;28;20405;-59
2022/03/11 11:38:32;;;;;;;9.20;7.30;;;;;;;;;;5113646;28;20413;-62
2022/03/11 11:40:59;;;;;;;9.93;7.20;;;;;;;;;;5113638;28;20907;-60
2022/03/11 11:43:26;;;;;;;8.50;6.90;;;;;;;;;;5113261;28;20464;-59
2022/03/11 11:45:53;;;;;;;18.57;7.70;;;;;;;;;;5113345;28;20405;-61
2022/03/11 11:48:35;;;;;;;11.93;7.03;;;;;;;;;;5113848;28;20405;-61
2022/03/11 11:51:05;;;;;;;17.03;7.80;;;;;;;;;;5113549;28;20432;-60
2022/03/11 11:53:34;;;;;;;16.77;8.00;;;;;;;;;;5130422;27;20412;-63
2022/03/11 11:56:01;;;;;;;9.43;7.33;;;;;;;;;;5133892;27;20499;-63
2022/03/11 11:58:27;;;;;;;10.73;7.50;;;;;;;;;;5133895;27;20399;-63
2022/03/11 12:00:57;;;;;;;21.27;7.30;;;;;;;;;;5133974;27;20871;-61
2022/03/11 12:03:42;;;;;;;10.30;7.20;;;;;;;;;;5133558;27;20473;-62
2022/03/11 12:06:09;;;;;;;12.30;7.63;;;;;;;;;;5133774;27;20513;-58
2022/03/11 12:08:37;;;;;;;14.43;7.30;;;;;;;;;;5133772;27;20865;-57
2022/03/11 12:11:03;;;;;;;7.73;7.00;;;;;;;;;;5133721;27;20490;-58
2022/03/11 12:13:32;;;;;;;10.43;6.70;;;;;;;;;;5115017;27;20454;-58
2022/03/11 12:15:59;;;;;;;13.43;7.77;;;;;;;;;;5133511;27;20498;-59
2022/03/11 12:18:42;;;;;;;12.20;8.17;;;;;;;;;;5133295;27;20455;-60
2022/03/11 12:21:21;;;;;;;16.43;8.10;;;;;;;;;;5133257;27;20404;-58
2022/03/11 12:23:48;;;;;;;11.90;8.10;;;;;;;;;;5133329;27;20412;-58
2022/03/11 12:26:14;;;;;;;11.83;8.80;;;;;;;;;;5133367;27;20400;-59
2022/03/11 12:28:43;;;;;;;12.40;9.07;;;;;;;;;;5133454;27;20427;-58
2022/03/11 12:31:11;;;;;;;17.90;8.40;;;;;;;;;;5132972;27;20536;-61
2022/03/11 12:33:39;;;;;;;15.03;8.37;;;;;;;;;;5133060;27;20424;-61
2022/03/11 12:36:12;;;;;;;13.90;9.07;;;;;;;;;;5133192;27;20501;-60
2022/03/11 12:38:41;;;;;;;13.83;8.53;;;;;;;;;;5132817;27;20927;-59
2022/03/11 12:41:11;;;;;;;10.80;8.33;;;;;;;;;;5133032;27;20393;-60
2022/03/11 12:43:38;;;;;;;15.83;9.07;;;;;;;;;;5132943;27;20459;-59
2022/03/11 12:46:06;;;;;;;12.63;8.77;;;;;;;;;;5132980;27;20963;-61
2022/03/11 12:48:33;;;;;;;11.30;9.27;;;;;;;;;;5114743;27;20830;-60
2022/03/11 12:51:00;;;;;;;22.67;8.27;;;;;;;;;;5132970;27;20407;-59
2022/03/11 12:53:26;;;;;;;17.30;8.73;;;;;;;;;;5132669;27;20447;-60
2022/03/11 12:55:53;;;;;;;13.50;8.07;;;;;;;;;;5132996;27;20403;-59
2022/03/11 12:58:25;;;;;;;10.83;8.80;;;;;;;;;;5114486;28;20419;-60
2022/03/11 13:00:53;;;;;;;11.30;7.77;;;;;;;;;;5132667;27;20408;-59
2022/03/11 13:03:25;;;;;;;15.20;9.17;;;;;;;;;;5132476;27;20464;-58
2022/03/11 13:05:51;;;;;;;12.23;8.83;;;;;;;;;;5132707;27;20407;-59
2022/03/11 13:08:18;;;;;;;13.43;8.83;;;;;;;;;;5132543;27;20415;-62
2022/03/11 13:10:51;;;;;;;12.03;8.73;;;;;;;;;;5132821;27;20392;-59
2022/03/11 13:13:17;;;;;;;15.30;9.03;;;;;;;;;;5132419;28;20412;-60
2022/03/11 13:15:48;;;;;;;12.00;9.20;;;;;;;;;;5132597;28;20904;-59
2022/03/11 13:18:18;;;;;;;15.07;8.87;;;;;;;;;;5132676;28;20557;-59
2022/03/11 13:20:57;;;;;;;14.23;9.20;;;;;;;;;;5132574;28;20838;-59
2022/03/11 13:23:26;;;;;;;15.90;9.63;;;;;;;;;;5132117;28;20459;-59
2022/03/11 13:25:54;;;;;;;21.60;9.90;;;;;;;;;;5114145;28;20461;-60
2022/03/11 13:28:24;;;;;;;12.20;10.00;;;;;;;;;;5132612;28;20404;-60
2022/03/11 13:30:51;;;;;;;13.93;9.27;;;;;;;;;;5132562;28;20927;-59
2022/03/11 13:33:29;;;;;;;15.40;9.87;;;;;;;;;;5132296;27;20401;-60
2022/03/11 13:36:18;;;;;;;14.23;9.00;;;;;;;;;;5136847;27;20513;-61
2022/03/11 13:38:59;;;;;;;16.53;10.10;;;;;;;;;;5123580;27;20808;-62
2022/03/11 13:41:29;;;;;;;14.47;9.50;;;;;;;;;;5136356;27;20428;-60
2022/03/11 13:44:15;;;;;;;18.00;9.30;;;;;;;;;;5136312;27;20451;-59
2022/03/11 13:46:42;;;;;;;14.30;10.43;;;;;;;;;;5136426;27;20488;-61
2022/03/11 13:49:13;;;;;;;17.00;10.10;;;;;;;;;;5136097;27;20764;-59
2022/03/11 13:51:44;;;;;;;14.23;9.40;;;;;;;;;;5136084;27;20403;-57
2022/03/11 13:54:35;;;;;;;14.13;9.93;;;;;;;;;;5136420;27;20878;-60
2022/03/11 13:57:17;;;;;;;16.83;10.13;;;;;;;;;;5124871;27;20452;-59
2022/03/11 13:59:43;;;;;;;16.17;10.27;;;;;;;;;;5136193;27;20451;-61
2022/03/11 14:02:14;;;;;;;13.27;9.07;;;;;;;;;;5136202;27;20564;-61
2022/03/11 14:04:40;;;;;;;11.87;9.70;;;;;;;;;;5136262;27;20416;-57
2022/03/11 14:07:07;;;;;;;13.20;9.70;;;;;;;;;;5135977;27;20806;-59
2022/03/11 14:09:33;;;;;;;24.70;9.70;;;;;;;;;;5135898;27;20407;-59
2022/03/11 14:11:59;;;;;;;17.43;10.10;;;;;;;;;;5135824;27;20404;-60
2022/03/11 14:14:32;;;;;;;17.03;10.50;;;;;;;;;;5135805;27;20412;-59
2022/03/11 14:17:00;;;;;;;18.73;10.10;;;;;;;;;;5135736;27;20400;-59
2022/03/11 14:19:26;;;;;;;21.40;10.57;;;;;;;;;;5135504;27;20497;-59
2022/03/11 14:21:53;;;;;;;12.30;10.13;;;;;;;;;;5135707;27;20536;-61
2022/03/11 14:24:19;;;;;;;16.63;10.27;;;;;;;;;;5135604;27;20741;-60
2022/03/11 14:26:45;;;;;;;16.40;10.97;;;;;;;;;;5135662;27;20762;-62
2022/03/11 14:29:11;;;;;;;15.17;10.30;;;;;;;;;;5135390;27;20400;-58
2022/03/11 14:31:40;;;;;;;17.53;10.67;;;;;;;;;;5135491;27;20818;-58